This is the latest recevied weather packets stored in our database for station/object SP9WPN-12. If no packets are shown the sender has not sent any weather packets the latest 10 day(s).
| Time | Temp. | Humidity | Pressure | Rain* | Wind** | Luminosity | Snow |
|---|---|---|---|---|---|---|---|
| 1777545906 | 13.33° C | 28% | 1030.6 hPa | - | - | - | - |
| 1777545308 | 14.44° C | 27% | 1030.6 hPa | - | - | - | - |
| 1777544709 | 14.44° C | 29% | 1030.8 hPa | - | - | - | - |
| 1777544112 | 13.89° C | 28% | 1030.8 hPa | - | - | - | - |
| 1777543515 | 13.89° C | 28% | 1030.8 hPa | - | - | - | - |
| 1777542917 | 13.89° C | 29% | 1031 hPa | - | - | - | - |
| 1777542319 | 12.78° C | 31% | 1031.2 hPa | - | - | - | - |
| 1777541722 | 13.33° C | 30% | 1031.3 hPa | - | - | - | - |
| 1777541124 | 13.33° C | 32% | 1031.4 hPa | - | - | - | - |
| 1777540525 | 12.78° C | 32% | 1031.5 hPa | - | - | - | - |
| 1777539928 | 12.22° C | 31% | 1031.7 hPa | - | - | - | - |
| 1777539330 | 13.33° C | 31% | 1031.7 hPa | - | - | - | - |
| 1777538732 | 13.89° C | 31% | 1031.7 hPa | - | - | - | - |
| 1777538134 | 13.33° C | 32% | 1031.9 hPa | - | - | - | - |
| 1777537536 | 11.67° C | 34% | 1032 hPa | - | - | - | - |
| 1777536938 | 11.11° C | 35% | 1032.3 hPa | - | - | - | - |
| 1777536340 | 10.56° C | 36% | 1032.4 hPa | - | - | - | - |
| 1777535742 | 11.11° C | 36% | 1032.4 hPa | - | - | - | - |
| 1777535144 | 10° C | 36% | 1032.5 hPa | - | - | - | - |
| 1777534545 | 10° C | 36% | 1032.5 hPa | - | - | - | - |
| 1777533947 | 11.11° C | 36% | 1032.3 hPa | - | - | - | - |
| 1777533349 | 10° C | 37% | 1032.5 hPa | - | - | - | - |
| 1777532752 | 10° C | 39% | 1032.6 hPa | - | - | - | - |
| 1777532155 | 9.44° C | 42% | 1032.8 hPa | - | - | - | - |
| 1777531557 | 9.44° C | 42% | 1032.8 hPa | - | - | - | - |
* Rain since midnight (hover to see other rain measurements)
** Current wind speed in m/s (hover to see current wind gust speed)